Time;durP1;ratioP1;P1;durP2;ratioP2;P2;SDS_P1;SDS_P2;PMS_P1;PMS_P2;Temp;Humidity;BMP_temperature;BMP_pressure;BME280_temperature;BME280_humidity;BME280_pressure;Samples;Min_cycle;Max_cycle;Signal;HPM_P1;HPM_P2
2024/03/17 00:00:10;;;;;;;39.55;19.07;;;;;;;7.08;90.82;100569.14;1631063;86;21099;-74
2024/03/17 00:02:37;;;;;;;40.45;18.98;;;;;;;7.10;90.95;100574.77;1627181;88;21609;-73
2024/03/17 00:05:07;;;;;;;42.00;18.80;;;;;;;7.12;91.05;100563.69;1631169;86;21086;-74
2024/03/17 00:07:36;;;;;;;40.17;20.00;;;;;;;7.12;90.99;100565.05;1630000;86;21146;-73
2024/03/17 00:10:07;;;;;;;40.67;19.32;;;;;;;7.12;91.01;100563.17;1632121;86;21173;-73
2024/03/17 00:12:35;;;;;;;38.28;19.48;;;;;;;7.13;91.00;100569.48;1630963;88;21051;-74
2024/03/17 00:15:07;;;;;;;43.55;20.95;;;;;;;7.09;90.98;100564.88;1631136;86;21071;-74
2024/03/17 00:17:36;;;;;;;41.50;20.95;;;;;;;7.08;90.94;100565.91;1629051;86;21111;-75
2024/03/17 00:20:18;;;;;;;42.17;19.10;;;;;;;7.02;90.90;100558.42;1629884;86;21486;-74
2024/03/17 00:22:40;;;;;;;40.40;19.57;;;;;;;7.00;91.12;100561.83;1628013;87;21090;-74
2024/03/17 00:25:09;;;;;;;44.00;20.17;;;;;;;7.01;91.25;100549.91;1624906;87;21289;-75
2024/03/17 00:27:41;;;;;;;41.42;20.08;;;;;;;7.03;91.34;100552.45;1630907;88;21584;-75
2024/03/17 00:30:12;;;;;;;41.65;20.82;;;;;;;7.03;91.33;100547.01;1630065;87;21035;-74
2024/03/17 00:32:40;;;;;;;39.58;19.77;;;;;;;7.02;91.33;100543.44;1629924;86;21129;-74
2024/03/17 00:35:11;;;;;;;43.05;20.65;;;;;;;7.02;91.42;100542.07;1629844;88;21680;-72
2024/03/17 00:37:40;;;;;;;41.68;20.77;;;;;;;7.05;91.45;100547.17;1613503;87;21603;-74
2024/03/17 00:40:11;;;;;;;39.53;19.90;;;;;;;7.04;91.40;100535.94;1631139;87;21086;-74
2024/03/17 00:42:40;;;;;;;42.13;20.50;;;;;;;7.05;91.48;100536.80;1630616;86;21046;-72
2024/03/17 00:45:11;;;;;;;44.15;20.57;;;;;;;7.03;91.42;100538.33;1630956;86;21512;-74
2024/03/17 00:47:40;;;;;;;41.98;19.90;;;;;;;7.03;91.48;100530.16;1630822;88;21114;-74
2024/03/17 00:50:11;;;;;;;41.05;19.98;;;;;;;7.03;91.49;100534.23;1631072;86;21130;-74
2024/03/17 00:52:40;;;;;;;42.35;19.87;;;;;;;7.02;91.51;100525.73;1630891;86;21173;-73
2024/03/17 00:55:10;;;;;;;41.77;20.50;;;;;;;7.02;91.58;100524.36;1630038;88;21055;-73
2024/03/17 00:57:38;;;;;;;42.80;20.60;;;;;;;7.03;91.54;100523.85;1632501;86;21129;-74
2024/03/17 01:00:15;;;;;;;39.63;19.90;;;;;;;7.05;91.60;100520.45;1630963;87;21138;-73
2024/03/17 01:02:40;;;;;;;43.23;20.23;;;;;;;7.06;91.49;100518.91;1601643;89;21596;-74
2024/03/17 01:05:09;;;;;;;44.20;21.82;;;;;;;7.08;91.52;100518.23;1599165;88;21124;-75
2024/03/17 01:07:38;;;;;;;40.35;20.72;;;;;;;7.08;91.46;100505.97;1597661;89;21077;-74
2024/03/17 01:10:08;;;;;;;44.13;21.33;;;;;;;7.09;91.37;100509.03;1628305;86;21511;-74
2024/03/17 01:12:37;;;;;;;43.90;21.30;;;;;;;7.06;91.41;100503.08;1629057;87;21082;-74
2024/03/17 01:15:08;;;;;;;46.35;21.77;;;;;;;7.05;91.41;100506.31;1627715;86;21122;-74
2024/03/17 01:17:37;;;;;;;41.83;20.23;;;;;;;7.04;91.38;100500.52;1626575;86;21087;-74
2024/03/17 01:20:08;;;;;;;44.77;21.95;;;;;;;7.03;91.37;100497.97;1631276;88;21106;-73
2024/03/17 01:22:37;;;;;;;41.33;19.82;;;;;;;7.04;91.31;100495.59;1630203;86;21118;-73
2024/03/17 01:25:08;;;;;;;40.98;20.20;;;;;;;7.03;91.29;100493.38;1628156;88;21711;-74
2024/03/17 01:27:37;;;;;;;40.60;20.20;;;;;;;7.04;91.26;100495.08;1630817;86;21098;-73
2024/03/17 01:30:09;;;;;;;40.25;20.85;;;;;;;7.05;91.26;100502.22;1630857;86;21086;-74
2024/03/17 01:32:38;;;;;;;42.98;20.90;;;;;;;7.04;91.19;100489.62;1628901;86;21110;-73
2024/03/17 01:35:07;;;;;;;42.90;21.23;;;;;;;7.05;91.21;100490.48;1629858;87;21086;-74
2024/03/17 01:37:36;;;;;;;45.92;21.52;;;;;;;7.07;91.21;100490.64;1630035;86;21114;-74
2024/03/17 01:40:10;;;;;;;41.00;20.95;;;;;;;7.08;91.16;100489.62;1630877;86;21576;-73
2024/03/17 01:42:40;;;;;;;37.80;19.77;;;;;;;7.11;91.12;100487.06;1628651;87;21119;-75
2024/03/17 01:45:29;;;;;;;41.10;20.43;;;;;;;7.09;91.08;100483.14;1632491;86;21071;-74
2024/03/17 01:48:02;;;;;;;40.05;20.65;;;;;;;7.10;91.09;100484.84;1625037;87;21150;-73
2024/03/17 01:50:35;;;;;;;38.02;20.45;;;;;;;7.14;91.03;100483.48;1627952;88;21082;-73
2024/03/17 01:53:07;;;;;;;40.17;20.68;;;;;;;7.16;90.86;100479.25;1630823;87;21514;-74
2024/03/17 01:55:39;;;;;;;40.43;21.17;;;;;;;7.15;90.74;100485.21;1630701;86;21082;-75
2024/03/17 01:58:09;;;;;;;43.40;21.37;;;;;;;7.14;90.67;100481.27;1634113;87;21121;-73
2024/03/17 02:00:38;;;;;;;41.63;21.70;;;;;;;7.10;90.60;100486.21;1629111;86;21139;-72
2024/03/17 02:03:08;;;;;;;42.43;21.02;;;;;;;7.08;90.62;100473.78;1631060;88;21054;-74
2024/03/17 02:05:37;;;;;;;38.42;20.05;;;;;;;7.07;90.71;100476.17;1627916;86;21511;-75
2024/03/17 02:08:09;;;;;;;39.92;20.32;;;;;;;7.06;90.69;100475.32;1631567;88;21138;-73
2024/03/17 02:10:38;;;;;;;43.35;20.97;;;;;;;7.07;90.67;100472.94;1628847;87;21102;-74
2024/03/17 02:13:07;;;;;;;40.55;20.37;;;;;;;7.08;90.69;100472.42;1630912;88;21050;-73
2024/03/17 02:15:36;;;;;;;35.30;19.27;;;;;;;7.08;90.59;100461.02;1628555;86;21078;-74
2024/03/17 02:18:05;;;;;;;38.50;19.70;;;;;;;7.08;90.55;100464.25;1607580;86;21131;-73
2024/03/17 02:23:22;;;;;;;40.88;20.45;;;;;;;7.07;90.51;100469.36;1630920;86;21096;-73
2024/03/17 02:25:53;;;;;;;39.08;19.70;;;;;;;7.07;90.46;100459.31;1630821;86;21564;-75
2024/03/17 02:28:22;;;;;;;35.90;19.40;;;;;;;7.07;90.45;100462.55;1624985;86;21498;-74
2024/03/17 02:30:51;;;;;;;42.50;20.15;;;;;;;7.06;90.45;100460.34;1626919;87;21098;-73
2024/03/17 02:33:22;;;;;;;35.70;19.07;;;;;;;7.05;90.47;100461.36;1628746;86;21522;-74
2024/03/17 02:35:50;;;;;;;36.88;20.20;;;;;;;7.06;90.51;100466.30;1632284;86;21146;-74
2024/03/17 02:39:31;;;;;;;38.58;21.30;;;;;;;7.06;90.54;100457.61;1625006;87;21217;-73
2024/03/17 02:40:50;;;;;;;40.43;20.92;;;;;;;7.07;90.47;100458.46;1621852;86;21124;-73
2024/03/17 02:43:20;;;;;;;39.85;20.27;;;;;;;7.06;90.45;100454.89;1627828;86;21471;-74
2024/03/17 02:45:48;;;;;;;40.25;19.98;;;;;;;7.05;90.38;100451.83;1628675;87;21134;-74
2024/03/17 02:48:17;;;;;;;38.58;20.72;;;;;;;7.04;90.36;100454.20;1624032;87;21079;-75
2024/03/17 02:50:46;;;;;;;41.10;19.73;;;;;;;7.05;90.38;100456.42;1606665;86;21050;-74
2024/03/17 02:53:15;;;;;;;37.70;19.60;;;;;;;7.05;90.42;100452.34;1619130;87;21554;-73
2024/03/17 02:55:43;;;;;;;38.63;19.62;;;;;;;7.05;90.45;100449.10;1630863;87;21083;-73
2024/03/17 02:58:12;;;;;;;34.38;18.77;;;;;;;7.05;90.44;100445.02;1634601;86;21126;-74
2024/03/17 03:00:41;;;;;;;37.90;19.42;;;;;;;7.02;90.48;100441.79;1628632;87;21532;-73
2024/03/17 03:03:09;;;;;;;38.05;19.15;;;;;;;7.03;90.53;100443.48;1623374;87;21090;-74
2024/03/17 03:05:38;;;;;;;37.55;18.55;;;;;;;7.03;90.63;100438.89;1620474;86;21149;-72
2024/03/17 03:08:07;;;;;;;38.13;19.23;;;;;;;7.06;90.65;100434.97;1630175;86;21082;-74
2024/03/17 03:10:37;;;;;;;37.25;18.70;;;;;;;7.09;90.59;100440.06;1628785;88;21152;-74
2024/03/17 03:13:07;;;;;;;35.50;18.20;;;;;;;7.10;90.54;100437.17;1626347;86;21118;-74
2024/03/17 03:15:37;;;;;;;34.38;18.75;;;;;;;7.12;90.51;100439.20;1631033;86;21106;-73
2024/03/17 03:18:07;;;;;;;36.30;18.98;;;;;;;7.14;90.47;100427.63;1620498;88;21166;-73
2024/03/17 03:20:36;;;;;;;40.20;19.35;;;;;;;7.17;90.38;100435.48;1630142;88;21107;-74
2024/03/17 03:23:05;;;;;;;39.58;19.90;;;;;;;7.18;90.32;100434.96;1627797;86;21115;-75
2024/03/17 03:25:34;;;;;;;36.25;19.50;;;;;;;7.18;90.20;100436.33;1628900;87;21110;-73
2024/03/17 03:28:04;;;;;;;36.77;18.98;;;;;;;7.15;90.10;100430.71;1631043;86;21102;-73
2024/03/17 03:30:36;;;;;;;36.83;18.73;;;;;;;7.14;90.01;100434.94;1629027;86;21082;-73
2024/03/17 03:33:05;;;;;;;37.50;18.92;;;;;;;7.12;89.98;100425.58;1629907;86;21142;-74
2024/03/17 03:35:35;;;;;;;36.25;18.30;;;;;;;7.10;89.93;100429.51;1626577;87;21087;-73
2024/03/17 03:38:04;;;;;;;33.38;18.37;;;;;;;7.07;89.99;100429.34;1630764;88;21131;-73
2024/03/17 03:40:33;;;;;;;37.85;19.35;;;;;;;7.08;90.08;100422.87;1630835;88;21507;-73
2024/03/17 03:43:02;;;;;;;35.75;19.15;;;;;;;7.08;90.13;100422.87;1631027;86;21118;-74
2024/03/17 03:45:31;;;;;;;37.85;18.62;;;;;;;7.09;90.13;100427.30;1629091;86;21055;-74
2024/03/17 03:47:59;;;;;;;33.92;18.55;;;;;;;7.07;90.07;100422.53;1628681;87;21105;-74
2024/03/17 03:50:28;;;;;;;39.18;19.30;;;;;;;7.04;90.11;100423.39;1628580;86;21102;-73
2024/03/17 03:52:57;;;;;;;35.55;18.60;;;;;;;7.04;90.26;100415.22;1632168;86;21102;-74
2024/03/17 03:55:25;;;;;;;33.67;18.52;;;;;;;7.03;90.34;100419.82;1630980;86;21961;-75
2024/03/17 03:57:54;;;;;;;37.05;19.42;;;;;;;7.03;90.43;100417.09;1630792;88;21565;-75
2024/03/17 04:00:23;;;;;;;40.23;19.77;;;;;;;7.03;90.46;100423.06;1633361;88;21124;-75
2024/03/17 04:02:52;;;;;;;38.28;19.02;;;;;;;7.00;90.54;100417.45;1629898;87;21125;-74
2024/03/17 04:05:21;;;;;;;37.55;19.35;;;;;;;7.00;90.59;100418.80;1634538;87;21039;-73
2024/03/17 04:07:50;;;;;;;37.05;19.02;;;;;;;6.98;90.68;100419.49;1631054;87;21098;-74
2024/03/17 04:10:20;;;;;;;35.30;19.10;;;;;;;6.99;90.74;100423.91;1633519;88;21083;-73
2024/03/17 04:12:49;;;;;;;35.43;18.02;;;;;;;6.97;90.75;100414.55;1630156;88;21082;-74
2024/03/17 04:15:17;;;;;;;32.45;18.00;;;;;;;6.98;90.79;100416.77;1632355;86;21086;-74
2024/03/17 04:17:47;;;;;;;37.58;18.85;;;;;;;6.99;90.82;100417.11;1630822;87;21054;-74
2024/03/17 04:20:16;;;;;;;35.25;18.45;;;;;;;6.99;90.75;100419.83;1618988;87;21075;-74
2024/03/17 04:22:45;;;;;;;32.00;17.52;;;;;;;6.96;90.77;100415.58;1629171;86;21094;-74
2024/03/17 04:25:14;;;;;;;34.03;18.05;;;;;;;6.95;90.85;100423.92;1629443;86;21382;-73
2024/03/17 04:27:43;;;;;;;36.60;18.32;;;;;;;6.90;90.80;100423.59;1621993;88;21530;-74
2024/03/17 04:30:12;;;;;;;36.28;19.23;;;;;;;6.88;90.97;100418.84;1614738;87;21142;-74
2024/03/17 04:32:40;;;;;;;34.40;19.50;;;;;;;6.85;90.97;100417.82;1622984;88;21593;-73
2024/03/17 04:35:09;;;;;;;34.58;19.10;;;;;;;6.84;91.08;100419.70;1622646;87;21199;-75
2024/03/17 04:37:39;;;;;;;39.70;19.75;;;;;;;6.83;91.13;100411.70;1622058;88;21159;-73
2024/03/17 04:40:09;;;;;;;40.23;19.52;;;;;;;6.82;91.20;100414.08;1618900;86;21111;-74
2024/03/17 04:42:38;;;;;;;37.63;18.40;;;;;;;6.80;91.25;100411.53;1617499;86;21082;-75
2024/03/17 04:45:09;;;;;;;37.17;19.50;;;;;;;6.82;91.43;100413.57;1613187;86;21099;-73
2024/03/17 04:47:38;;;;;;;39.33;19.35;;;;;;;6.83;91.46;100413.06;1611604;86;21099;-74
2024/03/17 04:50:07;;;;;;;38.13;18.70;;;;;;;6.84;91.56;100400.63;1627518;86;21515;-75
2024/03/17 04:52:36;;;;;;;35.48;18.55;;;;;;;6.85;91.61;100409.14;1629274;86;21091;-74
2024/03/17 04:55:05;;;;;;;33.25;18.32;;;;;;;6.83;91.59;100402.17;1630534;87;21154;-73
2024/03/17 04:57:33;;;;;;;34.83;18.73;;;;;;;6.82;91.64;100397.74;1632423;88;21062;-73
2024/03/17 05:00:07;;;;;;;35.85;19.02;;;;;;;6.83;91.71;100404.89;1631253;88;21090;-74
2024/03/17 05:02:36;;;;;;;32.53;16.90;;;;;;;6.82;91.79;100396.38;1630477;87;21036;-74
2024/03/17 05:05:08;;;;;;;33.45;17.52;;;;;;;6.82;91.87;100400.47;1633984;86;21121;-74
2024/03/17 05:07:37;;;;;;;34.75;17.87;;;;;;;6.82;91.94;100398.59;1642765;86;21113;-75
2024/03/17 05:10:07;;;;;;;31.62;17.80;;;;;;;6.82;91.88;100389.57;1613311;86;21119;-74
2024/03/17 05:12:36;;;;;;;32.85;17.50;;;;;;;6.82;92.01;100396.38;1624172;86;21107;-73
2024/03/17 05:15:07;;;;;;;30.08;16.70;;;;;;;6.84;92.09;100392.45;1631225;86;21577;-74
2024/03/17 05:17:36;;;;;;;32.85;17.32;;;;;;;6.87;92.15;100389.90;1632132;87;21498;-74
2024/03/17 05:20:08;;;;;;;32.53;17.10;;;;;;;6.89;92.11;100394.15;1630605;88;21070;-74
2024/03/17 05:22:37;;;;;;;34.23;17.70;;;;;;;6.91;92.10;100395.34;1624544;88;21119;-74
2024/03/17 05:25:07;;;;;;;33.80;18.17;;;;;;;6.93;92.12;100394.14;1621917;86;21536;-75
2024/03/17 05:27:36;;;;;;;29.70;16.17;;;;;;;6.94;92.01;100383.58;1622123;87;21094;-73
2024/03/17 05:30:08;;;;;;;28.77;16.30;;;;;;;6.94;91.96;100394.47;1626879;86;21055;-75
2024/03/17 05:32:38;;;;;;;31.37;16.48;;;;;;;6.95;91.92;100388.52;1627997;87;21546;-74
2024/03/17 05:35:07;;;;;;;32.63;17.55;;;;;;;6.96;91.83;100384.25;1630624;86;21127;-74
2024/03/17 05:37:36;;;;;;;31.80;17.12;;;;;;;6.97;91.85;100385.95;1630896;86;21511;-74
2024/03/17 05:40:06;;;;;;;32.80;16.93;;;;;;;6.98;91.84;100382.20;1633728;86;21149;-76
2024/03/17 05:42:35;;;;;;;31.12;15.88;;;;;;;7.00;91.86;100386.12;1626133;88;21555;-75
2024/03/17 05:45:05;;;;;;;32.13;17.92;;;;;;;7.04;91.91;100387.98;1633424;86;21125;-74
2024/03/17 05:47:34;;;;;;;33.30;16.60;;;;;;;7.05;91.86;100387.80;1632271;88;21138;-75
2024/03/17 05:50:04;;;;;;;30.55;16.37;;;;;;;7.05;91.80;100385.08;1634951;86;21083;-73
2024/03/17 05:52:33;;;;;;;32.88;16.62;;;;;;;7.07;91.74;100391.20;1630951;86;21138;-75
2024/03/17 05:55:01;;;;;;;28.67;16.48;;;;;;;7.08;91.73;100385.23;1628900;87;21150;-74
2024/03/17 05:57:30;;;;;;;31.75;17.07;;;;;;;7.09;91.72;100390.52;1630918;86;21099;-74
2024/03/17 05:59:59;;;;;;;29.95;16.05;;;;;;;7.11;91.75;100389.83;1630686;86;21151;-75
2024/03/17 06:02:28;;;;;;;31.15;15.88;;;;;;;7.15;91.77;100387.12;1630851;88;21067;-75
2024/03/17 06:05:03;;;;;;;29.37;16.15;;;;;;;7.19;91.71;100389.83;1630498;86;21075;-74
2024/03/17 06:07:28;;;;;;;28.55;16.00;;;;;;;7.19;91.76;100391.70;1625154;86;21130;-74
2024/03/17 06:09:57;;;;;;;25.92;14.83;;;;;;;7.23;91.75;100387.60;1615026;86;21078;-74
2024/03/17 06:12:26;;;;;;;30.40;16.82;;;;;;;7.25;91.67;100382.31;1617778;87;21517;-74
2024/03/17 06:14:54;;;;;;;30.52;16.48;;;;;;;7.22;91.47;100386.75;1623476;86;21058;-74
2024/03/17 06:17:23;;;;;;;28.42;15.98;;;;;;;7.23;91.47;100391.17;1630965;87;21075;-74
2024/03/17 06:19:52;;;;;;;30.82;16.55;;;;;;;7.22;91.41;100390.84;1627670;88;21154;-73
2024/03/17 06:22:22;;;;;;;32.28;17.37;;;;;;;7.19;91.36;100395.79;1636938;86;21085;-75
2024/03/17 06:24:51;;;;;;;30.75;16.35;;;;;;;7.19;91.57;100390.34;1622831;87;21114;-74
2024/03/17 06:27:20;;;;;;;28.45;15.72;;;;;;;7.22;91.75;100392.20;1630753;88;21487;-73
2024/03/17 06:29:49;;;;;;;30.97;16.02;;;;;;;7.24;91.75;100392.02;1630973;86;21133;-74
2024/03/17 06:32:17;;;;;;;27.95;15.83;;;;;;;7.22;91.53;100399.53;1597450;89;21084;-73
2024/03/17 06:34:46;;;;;;;27.37;15.15;;;;;;;7.16;91.40;100402.44;1629809;87;21063;-75
2024/03/17 06:37:14;;;;;;;29.63;15.13;;;;;;;7.09;91.53;100407.38;1623384;86;21173;-74
2024/03/17 06:39:46;;;;;;;27.85;14.90;;;;;;;7.05;91.64;100408.75;1618568;86;21055;-74
2024/03/17 06:42:15;;;;;;;24.27;13.28;;;;;;;6.97;91.68;100411.83;1625415;86;21106;-74
2024/03/17 06:44:44;;;;;;;23.98;13.30;;;;;;;6.85;91.72;100414.59;1623203;87;21087;-74
2024/03/17 06:47:13;;;;;;;24.98;13.60;;;;;;;6.74;91.94;100414.09;1626061;87;21607;-74
2024/03/17 06:49:43;;;;;;;24.07;13.43;;;;;;;6.65;92.39;100409.17;1630756;86;21158;-75
2024/03/17 06:52:12;;;;;;;23.15;13.68;;;;;;;6.58;92.81;100410.37;1629887;87;21134;-75
2024/03/17 06:54:41;;;;;;;23.40;12.65;;;;;;;6.56;93.19;100417.86;1626451;88;21094;-74
2024/03/17 06:57:10;;;;;;;22.42;12.18;;;;;;;6.56;93.41;100409.70;1631018;88;21074;-74
2024/03/17 06:59:38;;;;;;;22.48;12.40;;;;;;;6.53;93.56;100416.84;1629948;88;21588;-74
2024/03/17 07:02:07;;;;;;;21.27;12.07;;;;;;;6.49;93.66;100413.24;1630784;86;21169;-72
2024/03/17 07:04:36;;;;;;;24.12;12.43;;;;;;;6.46;93.76;100419.87;1632513;86;21134;-75
2024/03/17 07:07:06;;;;;;;18.75;11.10;;;;;;;6.41;93.90;100419.55;1631236;88;21177;-73
2024/03/17 07:09:35;;;;;;;21.52;11.55;;;;;;;6.40;94.23;100419.20;1621984;87;21086;-74
2024/03/17 07:12:08;;;;;;;24.07;13.85;;;;;;;6.34;94.23;100415.29;1630741;86;21714;-74
2024/03/17 07:14:37;;;;;;;21.33;12.00;;;;;;;6.29;94.43;100416.31;1630751;87;21201;-74
2024/03/17 07:17:06;;;;;;;20.25;11.55;;;;;;;6.28;94.65;100413.76;1630323;86;22342;-73
2024/03/17 07:19:36;;;;;;;23.25;12.68;;;;;;;6.29;94.94;100407.30;1628490;87;21518;-74
2024/03/17 07:22:04;;;;;;;22.05;12.10;;;;;;;6.29;95.14;100414.95;1630992;87;21125;-75
2024/03/17 07:24:33;;;;;;;23.40;12.37;;;;;;;6.34;95.38;100417.16;1630836;86;21079;-73
2024/03/17 07:27:03;;;;;;;19.40;10.82;;;;;;;6.39;95.60;100414.78;1627015;86;21126;-74
2024/03/17 07:29:31;;;;;;;22.02;12.03;;;;;;;6.44;95.60;100406.95;1630789;87;21087;-75
2024/03/17 07:32:00;;;;;;;19.85;11.30;;;;;;;6.47;95.54;100422.94;1630913;87;21090;-74
2024/03/17 07:34:32;;;;;;;22.70;11.35;;;;;;;6.46;95.45;100419.87;1630803;86;21106;-75
2024/03/17 07:37:02;;;;;;;24.37;11.18;;;;;;;6.47;95.57;100409.33;1630661;86;21133;-74
2024/03/17 07:39:32;;;;;;;23.75;12.05;;;;;;;6.46;95.55;100406.27;1624288;88;21110;-75
2024/03/17 07:42:01;;;;;;;20.10;11.73;;;;;;;6.44;95.54;100402.87;1630504;86;21083;-75
2024/03/17 07:44:33;;;;;;;20.27;10.93;;;;;;;6.42;95.70;100412.23;1630886;87;21083;-74
2024/03/17 07:47:03;;;;;;;23.22;12.15;;;;;;;6.42;95.93;100394.53;1630936;87;21078;-74
2024/03/17 07:49:32;;;;;;;20.97;11.60;;;;;;;6.42;96.19;100392.66;1630945;86;21317;-74
2024/03/17 07:52:02;;;;;;;24.37;12.58;;;;;;;6.48;96.44;100391.98;1630837;86;21114;-75
2024/03/17 07:54:31;;;;;;;22.02;12.28;;;;;;;6.53;96.51;100386.91;1630221;87;21047;-76
2024/03/17 07:57:00;;;;;;;24.67;12.82;;;;;;;6.60;96.57;100386.55;1622142;88;21062;-75
2024/03/17 07:59:29;;;;;;;22.45;12.53;;;;;;;6.66;96.58;100383.65;1630701;86;21090;-75
2024/03/17 08:01:58;;;;;;;24.43;13.43;;;;;;;6.74;96.54;100381.42;1624626;87;21066;-74
2024/03/17 08:04:26;;;;;;;23.18;12.70;;;;;;;6.81;96.38;100379.19;1630830;86;21099;-74
2024/03/17 08:06:57;;;;;;;24.00;12.80;;;;;;;6.87;96.26;100384.45;1611223;86;21138;-73
2024/03/17 08:09:25;;;;;;;25.20;12.50;;;;;;;6.93;96.00;100374.22;1622614;86;21103;-75
2024/03/17 08:11:54;;;;;;;26.17;12.88;;;;;;;6.94;95.65;100382.22;1614353;87;21132;-75
2024/03/17 08:14:23;;;;;;;25.27;12.73;;;;;;;6.95;95.56;100370.81;1628379;86;21132;-74
2024/03/17 08:16:52;;;;;;;24.35;12.78;;;;;;;7.00;95.48;100373.86;1628633;86;21091;-74
2024/03/17 08:19:20;;;;;;;26.35;12.45;;;;;;;7.05;95.38;100371.97;1630482;86;21518;-74
2024/03/17 08:21:49;;;;;;;24.92;12.58;;;;;;;7.09;95.22;100371.95;1631232;88;21082;-74
2024/03/17 08:24:18;;;;;;;25.75;13.22;;;;;;;7.12;94.99;100373.81;1631040;86;21071;-74
2024/03/17 08:26:46;;;;;;;23.65;12.35;;;;;;;7.17;94.73;100370.08;1630175;86;21118;-73
2024/03/17 08:29:15;;;;;;;24.52;12.20;;;;;;;7.18;94.27;100374.50;1624670;87;21130;-74
2024/03/17 08:31:45;;;;;;;23.95;12.33;;;;;;;7.16;93.99;100372.47;1631212;88;21110;-75
2024/03/17 08:34:14;;;;;;;29.02;12.80;;;;;;;7.16;93.77;100367.53;1630723;86;21086;-75
2024/03/17 08:36:42;;;;;;;26.45;13.25;;;;;;;7.16;93.63;100367.02;1617491;88;21110;-73
2024/03/17 08:39:11;;;;;;;25.30;12.88;;;;;;;7.13;93.50;100371.42;1617207;87;21102;-74
2024/03/17 08:41:40;;;;;;;26.57;13.55;;;;;;;7.13;93.38;100367.85;1608814;88;21533;-75
2024/03/17 08:44:09;;;;;;;23.67;13.35;;;;;;;7.11;93.26;100369.91;1626385;88;21127;-75
2024/03/17 08:46:38;;;;;;;25.02;12.47;;;;;;;7.10;93.37;100368.20;1630655;87;21142;-74
2024/03/17 08:49:06;;;;;;;22.10;12.33;;;;;;;7.12;93.35;100379.78;1629966;87;21063;-74
2024/03/17 08:51:35;;;;;;;30.62;13.83;;;;;;;7.14;93.32;100376.36;1626745;87;21103;-74
2024/03/17 08:54:04;;;;;;;26.68;13.95;;;;;;;7.17;93.12;100377.41;1639254;84;21524;-74
2024/03/17 08:56:34;;;;;;;27.17;14.15;;;;;;;7.17;93.02;100371.44;1687180;83;21121;-78
2024/03/17 08:59:03;;;;;;;23.45;11.20;;;;;;;7.20;93.18;100379.27;1644972;85;21122;-77
2024/03/17 09:01:32;;;;;;;23.10;12.53;;;;;;;7.28;93.72;100373.78;1647709;86;21091;-76
2024/03/17 09:04:01;;;;;;;25.23;12.03;;;;;;;7.58;95.31;100363.91;1655177;84;21095;-77
2024/03/17 09:06:30;;;;;;;24.45;14.25;;;;;;;7.63;93.29;100362.86;1660340;85;21079;-77
2024/03/17 09:08:58;;;;;;;30.75;16.70;;;;;;;7.63;92.29;100360.64;1657420;84;21134;-77
2024/03/17 09:11:28;;;;;;;25.97;13.03;;;;;;;7.61;92.02;100356.73;1664312;85;21114;-77
2024/03/17 09:13:56;;;;;;;27.32;14.03;;;;;;;7.64;91.72;100352.80;1695342;84;21908;-77
2024/03/17 09:16:25;;;;;;;26.48;13.72;;;;;;;7.66;91.33;100341.20;1701734;83;21141;-77
2024/03/17 09:18:54;;;;;;;26.33;13.43;;;;;;;7.67;91.16;100341.53;1683112;85;21062;-77
2024/03/17 09:21:23;;;;;;;27.35;13.08;;;;;;;7.69;90.99;100341.35;1683175;85;21090;-78
2024/03/17 09:23:52;;;;;;;30.23;14.93;;;;;;;7.71;90.87;100334.69;1688337;84;21111;-78
2024/03/17 09:26:20;;;;;;;29.65;14.90;;;;;;;7.76;90.73;100334.14;1705049;83;21114;-79
2024/03/17 09:28:49;;;;;;;37.75;17.00;;;;;;;7.80;90.40;100330.91;1693617;83;21052;-77
2024/03/17 09:31:19;;;;;;;37.55;16.37;;;;;;;7.86;90.17;100329.33;1657617;85;21535;-78
2024/03/17 09:33:49;;;;;;;36.60;16.85;;;;;;;7.89;89.87;100328.97;1674340;85;21061;-77
2024/03/17 09:36:20;;;;;;;34.03;15.93;;;;;;;7.95;89.67;100321.41;1676109;84;21520;-78
2024/03/17 09:38:48;;;;;;;41.48;18.35;;;;;;;8.03;89.41;100332.78;1663058;84;21058;-78
2024/03/17 09:41:26;;;;;;;40.17;17.15;;;;;;;8.08;89.16;100323.52;1671322;85;21199;-78
2024/03/17 09:43:55;;;;;;;40.23;17.40;;;;;;;8.13;88.97;100312.39;1657974;85;21079;-78
2024/03/17 09:46:27;;;;;;;42.80;19.82;;;;;;;8.20;88.98;100324.78;1672249;85;21152;-79
2024/03/17 09:48:57;;;;;;;47.33;20.40;;;;;;;8.29;88.50;100322.31;1672315;84;21081;-78
2024/03/17 09:51:26;;;;;;;50.17;20.70;;;;;;;8.36;87.97;100325.19;1659586;83;21082;-76
2024/03/17 09:53:55;;;;;;;51.70;21.90;;;;;;;8.42;87.59;100334.00;1669287;85;21063;-79
2024/03/17 09:56:23;;;;;;;47.53;20.95;;;;;;;8.44;87.26;100332.77;1661921;85;21091;-78
2024/03/17 09:58:52;;;;;;;50.70;22.20;;;;;;;8.47;86.95;100325.61;1661272;86;21521;-78
2024/03/17 10:01:22;;;;;;;49.83;21.42;;;;;;;8.50;86.83;100323.88;1660390;85;21106;-77
2024/03/17 10:03:52;;;;;;;50.80;21.62;;;;;;;8.52;86.68;100328.63;1670160;85;21523;-78
2024/03/17 10:06:24;;;;;;;46.85;21.05;;;;;;;8.55;86.49;100317.84;1688989;83;21118;-78
2024/03/17 10:08:55;;;;;;;51.02;20.95;;;;;;;8.58;86.34;100322.42;1696525;83;21491;-74
2024/03/17 10:11:27;;;;;;;47.67;20.48;;;;;;;8.61;86.08;100321.20;1695416;84;21011;-76
2024/03/17 10:14:05;;;;;;;51.33;21.80;;;;;;;8.61;85.70;100313.52;1683426;84;21475;-76
2024/03/17 10:16:37;;;;;;;52.13;22.73;;;;;;;8.60;85.68;100315.92;1683649;84;21103;-77
2024/03/17 10:19:19;;;;;;;52.08;24.23;;;;;;;8.61;85.73;100314.89;1683865;84;21071;-79
2024/03/17 10:21:50;;;;;;;52.73;24.18;;;;;;;8.61;85.68;100320.35;1670246;84;21048;-79
2024/03/17 10:24:28;;;;;;;56.65;24.25;;;;;;;8.61;85.61;100319.83;1700276;84;21087;-78
2024/03/17 10:27:02;;;;;;;51.28;23.02;;;;;;;8.61;85.71;100308.06;1693771;84;21086;-79
2024/03/17 10:29:33;;;;;;;48.98;22.50;;;;;;;8.61;85.72;100306.70;1687512;83;21088;-75
2024/03/17 10:32:13;;;;;;;45.12;20.52;;;;;;;8.63;85.75;100312.81;1658032;84;21111;-79
2024/03/17 10:34:42;;;;;;;35.63;16.93;;;;;;;8.62;85.67;100307.03;1657478;86;21107;-78
2024/03/17 10:37:25;;;;;;;35.35;16.95;;;;;;;8.58;85.67;100313.38;1658127;85;21503;-77
2024/03/17 10:39:59;;;;;;;33.33;16.80;;;;;;;8.57;85.84;100313.90;1659962;84;21114;-79
2024/03/17 10:42:28;;;;;;;32.65;15.93;;;;;;;8.57;85.77;100298.03;1663447;85;21571;-79
2024/03/17 10:44:58;;;;;;;30.30;15.83;;;;;;;8.57;85.78;100301.61;1667415;84;21176;-78
2024/03/17 10:47:27;;;;;;;29.55;16.00;;;;;;;8.57;85.84;100298.88;1665471;85;21101;-78
2024/03/17 10:49:56;;;;;;;25.90;14.38;;;;;;;8.60;86.03;100300.91;1659184;86;21114;-79
2024/03/17 10:52:26;;;;;;;27.93;14.30;;;;;;;8.64;85.87;100292.66;1641572;86;21067;-79
2024/03/17 10:54:56;;;;;;;27.77;13.55;;;;;;;8.65;85.70;100305.28;1664886;84;21085;-79
2024/03/17 10:57:39;;;;;;;26.00;14.13;;;;;;;8.67;85.51;100295.88;1669454;86;21200;-78
2024/03/17 11:00:12;;;;;;;24.43;13.08;;;;;;;8.67;85.35;100302.70;1657141;86;21110;-75
2024/03/17 11:02:41;;;;;;;26.10;12.75;;;;;;;8.65;85.14;100304.77;1641043;86;21519;-75
2024/03/17 11:05:29;;;;;;;30.37;14.30;;;;;;;8.66;84.93;100305.62;1699024;83;21051;-75
2024/03/17 11:08:01;;;;;;;26.60;14.45;;;;;;;8.65;84.99;100291.63;1683129;85;21066;-76
2024/03/17 11:10:37;;;;;;;28.87;15.53;;;;;;;8.68;85.26;100291.25;1683239;85;21118;-76
2024/03/17 11:13:06;;;;;;;29.72;15.32;;;;;;;8.70;85.37;100282.35;1683205;85;21071;-79
2024/03/17 11:15:39;;;;;;;25.85;14.05;;;;;;;8.77;85.31;100284.14;1660788;85;21083;-76
2024/03/17 11:18:14;;;;;;;25.40;13.62;;;;;;;8.82;85.12;100276.74;1692024;84;21062;-78
2024/03/17 11:20:43;;;;;;;26.17;14.15;;;;;;;8.85;84.82;100281.83;1692500;84;21126;-76
2024/03/17 11:23:17;;;;;;;27.42;14.53;;;;;;;8.89;84.64;100269.48;1689979;84;21471;-77
2024/03/17 11:25:53;;;;;;;26.55;14.15;;;;;;;8.93;84.49;100268.06;1662672;84;21051;-78
2024/03/17 11:28:49;;;;;;;21.55;10.28;;;;;;;8.98;84.27;100268.34;1683510;85;21106;-77
2024/03/17 11:31:40;;;;;;;26.62;14.20;;;;;;;9.03;84.06;100264.52;1691468;85;21051;-77